createdAt,value
2018-07-13T00:02:13.119Z,18.60
2018-07-13T00:04:41.267Z,18.70
2018-07-13T00:07:09.363Z,18.60
2018-07-13T00:09:37.499Z,18.50
2018-07-13T00:12:05.632Z,18.50
2018-07-13T00:14:33.767Z,18.50
2018-07-13T00:17:01.884Z,18.40
2018-07-13T00:19:30.017Z,18.30
2018-07-13T00:24:26.088Z,18.30
2018-07-13T00:26:54.205Z,18.30
2018-07-13T00:29:22.368Z,18.30
2018-07-13T00:31:50.491Z,18.30
2018-07-13T00:34:18.615Z,18.30
2018-07-13T00:36:46.740Z,18.20
2018-07-13T00:39:14.858Z,18.10
2018-07-13T00:41:42.980Z,18.00
2018-07-13T00:44:11.120Z,18.00
2018-07-13T00:46:39.256Z,17.90
2018-07-13T00:49:07.383Z,17.90
2018-07-13T00:54:03.414Z,17.90
2018-07-13T01:01:27.444Z,17.70
2018-07-13T01:06:23.479Z,17.70
2018-07-13T01:11:19.531Z,17.70
2018-07-13T01:18:43.562Z,17.70
2018-07-13T01:21:11.688Z,17.70
2018-07-13T01:23:39.820Z,17.60
2018-07-13T01:26:07.952Z,17.60
2018-07-13T01:28:36.080Z,17.50
2018-07-13T01:31:04.218Z,17.40
2018-07-13T01:33:32.336Z,17.30
2018-07-13T01:36:00.510Z,17.30
2018-07-13T01:38:38.522Z,17.30
2018-07-13T01:41:06.660Z,17.30
2018-07-13T01:43:34.792Z,17.30
2018-07-13T01:46:02.952Z,17.30
2018-07-13T01:48:31.084Z,17.30
2018-07-13T01:50:59.231Z,17.10
2018-07-13T01:53:27.373Z,17.20
2018-07-13T01:58:23.419Z,17.00
2018-07-13T02:03:19.503Z,17.00
2018-07-13T02:05:47.622Z,17.00
2018-07-13T02:10:43.675Z,17.00
2018-07-13T02:18:07.718Z,17.00
2018-07-13T02:20:35.826Z,17.00
2018-07-13T02:23:03.959Z,16.90
2018-07-13T02:25:32.098Z,16.80
2018-07-13T02:32:56.164Z,16.80
2018-07-13T02:35:24.287Z,16.80
2018-07-13T02:40:20.325Z,16.70
2018-07-13T02:42:48.460Z,16.70
2018-07-13T02:45:16.602Z,16.70
2018-07-13T02:47:44.737Z,16.70
2018-07-13T02:52:40.856Z,16.60
2018-07-13T02:55:08.985Z,16.60
2018-07-13T02:57:37.130Z,16.60
2018-07-13T03:02:33.200Z,16.50
2018-07-13T03:05:01.349Z,16.50
2018-07-13T03:09:57.366Z,16.50
2018-07-13T03:12:25.500Z,16.50
2018-07-13T03:14:53.650Z,16.40
2018-07-13T03:17:21.887Z,16.40
2018-07-13T03:19:50.003Z,16.40
2018-07-13T03:22:18.254Z,16.40
2018-07-13T03:24:46.298Z,16.30
2018-07-13T03:27:14.423Z,16.30
2018-07-13T03:29:42.552Z,16.20
2018-07-13T03:32:10.694Z,16.20
2018-07-13T03:34:38.843Z,16.10
2018-07-13T03:37:06.977Z,16.20
2018-07-13T03:42:03.075Z,16.10
2018-07-13T03:44:31.232Z,16.20
2018-07-13T03:46:59.446Z,16.20
2018-07-13T03:49:27.582Z,16.10
2018-07-13T03:51:55.726Z,16.10
2018-07-13T03:54:23.877Z,16.20
2018-07-13T03:59:19.978Z,16.20
2018-07-13T04:01:48.118Z,16.20
2018-07-13T04:04:16.260Z,16.20
2018-07-13T04:06:44.391Z,16.20
2018-07-13T04:09:12.536Z,16.20
2018-07-13T04:11:40.875Z,16.10
2018-07-13T04:14:09.361Z,16.20
2018-07-13T04:16:37.503Z,16.20
2018-07-13T04:19:05.942Z,16.20
2018-07-13T04:21:34.083Z,16.30
2018-07-13T04:24:02.210Z,16.30
2018-07-13T04:26:30.512Z,16.40
2018-07-13T04:28:58.651Z,16.40
2018-07-13T04:31:26.770Z,16.50
2018-07-13T04:33:54.915Z,16.60
2018-07-13T04:36:23.042Z,16.60
2018-07-13T04:41:19.095Z,16.70
2018-07-13T04:43:47.245Z,16.70
2018-07-13T04:46:15.472Z,16.80
2018-07-13T04:48:43.610Z,16.90
2018-07-13T04:53:39.621Z,16.90
2018-07-13T04:56:07.765Z,17.00
2018-07-13T04:58:36.467Z,17.00
2018-07-13T05:01:04.607Z,17.10
2018-07-13T05:03:32.745Z,17.10
2018-07-13T05:08:28.855Z,17.30
2018-07-13T05:10:57.002Z,17.30
2018-07-13T05:13:25.134Z,17.40
2018-07-13T05:18:21.339Z,17.50
2018-07-13T05:20:49.473Z,17.60
2018-07-13T05:23:17.807Z,17.60
2018-07-13T05:25:45.955Z,17.70
2018-07-13T05:28:14.172Z,17.70
2018-07-13T05:33:10.391Z,17.80
2018-07-13T05:35:38.536Z,17.80
2018-07-13T05:38:06.672Z,17.90
2018-07-13T05:43:02.849Z,18.00
2018-07-13T05:45:31.130Z,18.10
2018-07-13T05:47:59.274Z,18.20
2018-07-13T05:50:27.547Z,18.20
2018-07-13T05:52:55.693Z,18.20
2018-07-13T05:55:24.069Z,18.30
2018-07-13T05:57:52.199Z,18.20
2018-07-13T06:00:20.327Z,18.20
2018-07-13T06:05:16.351Z,18.50
2018-07-13T06:07:44.514Z,18.60
2018-07-13T06:10:12.663Z,18.60
2018-07-13T06:12:40.802Z,18.60
2018-07-13T06:15:08.983Z,18.70
2018-07-13T06:17:37.151Z,18.80
2018-07-13T06:20:06.902Z,18.80
2018-07-13T06:22:35.039Z,19.00
2018-07-13T06:25:03.203Z,19.10
2018-07-13T06:29:59.311Z,19.10
2018-07-13T06:32:27.699Z,19.10
2018-07-13T06:34:56.836Z,19.20
2018-07-13T06:37:24.989Z,19.10
2018-07-13T06:42:21.079Z,19.30
2018-07-13T06:44:49.213Z,19.30
2018-07-13T06:47:17.347Z,19.30
2018-07-13T06:49:45.474Z,19.40
2018-07-13T06:52:14.743Z,19.30
2018-07-13T06:57:18.111Z,19.20
2018-07-13T06:59:46.258Z,19.30
2018-07-13T07:02:25.931Z,19.50
2018-07-13T07:06:00.405Z,19.70
2018-07-13T07:08:28.860Z,19.80
2018-07-13T07:10:57.655Z,20.00
2018-07-13T07:13:27.754Z,20.20
2018-07-13T07:15:55.901Z,20.30
2018-07-13T07:18:24.138Z,20.20
2018-07-13T07:23:20.210Z,20.10
2018-07-13T07:25:48.346Z,20.20
2018-07-13T07:30:44.559Z,20.20
2018-07-13T07:33:12.601Z,20.20
2018-07-13T07:35:40.730Z,20.30
2018-07-13T07:38:08.854Z,20.50
2018-07-13T07:40:36.988Z,20.60
2018-07-13T07:43:05.124Z,20.80
2018-07-13T07:45:33.262Z,20.90
2018-07-13T07:48:01.398Z,20.90
2018-07-13T07:52:57.511Z,20.80
2018-07-13T07:55:25.654Z,20.90
2018-07-13T07:57:53.798Z,21.00
2018-07-13T08:00:21.938Z,21.10
2018-07-13T08:02:50.101Z,21.20
2018-07-13T08:05:18.238Z,21.30
2018-07-13T08:07:46.408Z,21.40
2018-07-13T08:10:14.744Z,21.20
2018-07-13T08:12:42.888Z,21.20
2018-07-13T08:15:11.027Z,21.30
2018-07-13T08:17:39.185Z,21.40
2018-07-13T08:25:08.560Z,21.70
2018-07-13T08:27:39.261Z,21.60
2018-07-13T08:30:11.090Z,21.50
2018-07-13T08:35:07.231Z,21.80
2018-07-13T08:37:35.359Z,22.00
2018-07-13T08:40:03.516Z,22.10
2018-07-13T08:42:31.639Z,22.20
2018-07-13T08:44:59.770Z,22.20
2018-07-13T08:47:27.911Z,22.30
2018-07-13T08:49:56.047Z,22.40
2018-07-13T08:52:24.171Z,22.60
2018-07-13T08:54:52.319Z,22.70
2018-07-13T08:59:48.359Z,22.90
2018-07-13T09:02:16.498Z,22.80
2018-07-13T09:04:44.680Z,22.80
2018-07-13T09:07:12.759Z,22.90
2018-07-13T09:09:40.898Z,23.00
2018-07-13T09:12:09.051Z,23.00
2018-07-13T09:14:37.190Z,23.10
2018-07-13T09:17:05.330Z,23.20
2018-07-13T09:19:33.483Z,23.30
2018-07-13T09:22:01.622Z,23.40
2018-07-13T09:24:29.758Z,23.40
2018-07-13T09:26:57.908Z,23.40
2018-07-13T09:29:26.043Z,23.50
2018-07-13T09:31:54.192Z,23.50
2018-07-13T09:34:22.329Z,23.60
2018-07-13T09:36:50.450Z,23.70
2018-07-13T09:39:18.593Z,23.80
2018-07-13T09:41:46.727Z,23.90
2018-07-13T09:44:14.868Z,23.90
2018-07-13T09:46:43.046Z,24.10
2018-07-13T09:49:11.139Z,24.10
2018-07-13T09:51:39.278Z,24.20
2018-07-13T09:54:07.490Z,24.20
2018-07-13T09:56:35.572Z,24.30
2018-07-13T09:59:03.713Z,24.50
2018-07-13T10:03:59.763Z,24.60
2018-07-13T10:06:27.882Z,24.60
2018-07-13T10:08:56.091Z,24.70
2018-07-13T10:11:24.230Z,24.90
2018-07-13T10:13:52.395Z,25.10
2018-07-13T10:16:20.526Z,25.10
2018-07-13T10:21:16.566Z,25.30
2018-07-13T10:23:45.697Z,25.40
2018-07-13T10:26:17.892Z,25.40
2018-07-13T10:28:46.019Z,25.50
2018-07-13T10:31:14.642Z,25.50
2018-07-13T10:33:42.774Z,25.50
2018-07-13T10:36:14.271Z,25.70
2018-07-13T10:38:42.399Z,25.70
2018-07-13T10:41:10.734Z,25.90
2018-07-13T10:43:38.867Z,26.00
2018-07-13T10:46:07.012Z,26.10
2018-07-13T10:48:35.150Z,26.00
2018-07-13T10:51:03.330Z,26.00
2018-07-13T10:53:31.769Z,26.20
2018-07-13T10:55:59.895Z,26.40
2018-07-13T11:00:56.009Z,26.50
2018-07-13T11:03:24.131Z,26.60
2018-07-13T11:05:52.258Z,26.60
2018-07-13T11:08:20.385Z,26.80
2018-07-13T11:10:48.532Z,26.90
2018-07-13T11:13:16.647Z,27.00
2018-07-13T11:15:44.783Z,27.10
2018-07-13T11:20:40.843Z,27.20
2018-07-13T11:23:09.058Z,27.30
2018-07-13T11:25:37.152Z,27.50
2018-07-13T11:28:05.437Z,27.70
2018-07-13T11:30:33.576Z,27.70
2018-07-13T11:33:01.700Z,27.80
2018-07-13T11:35:29.834Z,27.90
2018-07-13T11:37:57.977Z,27.90
2018-07-13T11:40:26.126Z,27.90
2018-07-13T11:42:54.276Z,28.00
2018-07-13T11:45:22.410Z,28.10
2018-07-13T11:47:50.542Z,28.20
2018-07-13T11:50:18.668Z,28.10
2018-07-13T11:52:46.819Z,28.00
2018-07-13T11:55:14.958Z,27.80
2018-07-13T11:57:43.095Z,27.90
2018-07-13T12:00:11.233Z,28.10
2018-07-13T12:02:39.379Z,28.20
2018-07-13T12:05:07.511Z,28.50
2018-07-13T12:07:35.723Z,28.60
2018-07-13T12:10:03.792Z,28.60
2018-07-13T12:12:31.951Z,28.70
2018-07-13T12:15:00.062Z,28.70
2018-07-13T12:17:28.273Z,29.20
2018-07-13T12:19:56.352Z,29.20
2018-07-13T12:22:24.450Z,29.50
2018-07-13T12:24:52.574Z,29.70
2018-07-13T12:27:20.718Z,29.90
2018-07-13T12:29:48.860Z,29.90
2018-07-13T12:34:45.189Z,29.60
2018-07-13T12:37:13.348Z,29.80
2018-07-13T12:39:41.541Z,29.90
2018-07-13T12:42:09.621Z,30.20
2018-07-13T12:44:37.735Z,30.20
2018-07-13T12:47:05.916Z,30.20
2018-07-13T12:49:34.119Z,30.50
2018-07-13T12:52:02.256Z,30.60
2018-07-13T12:54:30.391Z,30.60
2018-07-13T12:59:26.474Z,30.00
2018-07-13T13:01:54.586Z,30.10
2018-07-13T13:04:22.859Z,30.10
2018-07-13T13:06:50.986Z,30.50
2018-07-13T13:09:19.118Z,30.90
2018-07-13T13:11:47.287Z,31.30
2018-07-13T13:14:15.421Z,31.80
2018-07-13T13:16:43.550Z,32.10
2018-07-13T13:24:07.536Z,33.20
2018-07-13T13:26:35.665Z,33.10
2018-07-13T13:29:03.800Z,33.60
2018-07-13T13:33:59.831Z,32.50
2018-07-13T13:36:28.086Z,31.60
2018-07-13T13:38:56.230Z,30.80
2018-07-13T13:41:24.399Z,30.70
2018-07-13T13:43:52.514Z,30.60
2018-07-13T13:46:20.630Z,30.90
2018-07-13T13:48:48.772Z,31.50
2018-07-13T13:51:16.889Z,32.50
2018-07-13T13:53:45.082Z,33.70
2018-07-13T13:58:41.058Z,34.20
2018-07-13T14:03:37.386Z,35.80
2018-07-13T14:06:05.520Z,36.20
2018-07-13T14:08:33.658Z,36.80
2018-07-13T14:13:29.682Z,37.60
2018-07-13T14:15:57.825Z,37.40
2018-07-13T14:18:25.949Z,38.20
2018-07-13T14:20:54.082Z,39.40
2018-07-13T14:23:22.211Z,40.10
2018-07-13T14:25:50.338Z,39.50
2018-07-13T14:28:18.518Z,38.90
2018-07-13T14:30:46.595Z,37.60
2018-07-13T14:35:42.740Z,35.30
2018-07-13T14:38:10.855Z,35.40
2018-07-13T14:40:38.988Z,35.30
2018-07-13T14:45:35.011Z,36.10
2018-07-13T14:48:03.136Z,36.30
2018-07-13T14:50:31.254Z,37.30
2018-07-13T14:52:59.379Z,37.60
2018-07-13T14:55:27.522Z,37.60
2018-07-13T14:57:55.673Z,37.60
2018-07-13T15:00:23.798Z,37.50
2018-07-13T15:02:51.939Z,35.90
2018-07-13T15:07:48.139Z,34.60
2018-07-13T15:10:16.443Z,35.00
2018-07-13T15:15:12.376Z,36.10
2018-07-13T15:17:40.516Z,36.60
2018-07-13T15:20:08.591Z,35.30
2018-07-13T15:22:36.734Z,34.20
2018-07-13T15:25:04.910Z,32.50
2018-07-13T15:27:33.051Z,31.60
2018-07-13T15:30:01.177Z,31.10
2018-07-13T15:32:29.384Z,30.80
2018-07-13T15:34:57.521Z,30.40
2018-07-13T15:37:25.699Z,30.40
2018-07-13T15:39:53.778Z,30.40
2018-07-13T15:42:21.915Z,30.50
2018-07-13T15:44:50.053Z,30.30
2018-07-13T15:47:18.207Z,30.10
2018-07-13T15:49:46.391Z,29.90
2018-07-13T15:52:14.529Z,29.70
2018-07-13T15:54:42.671Z,29.60
2018-07-13T15:57:11.027Z,29.60
2018-07-13T15:59:39.158Z,29.80
2018-07-13T16:02:07.337Z,30.00
2018-07-13T16:04:35.483Z,30.00
2018-07-13T16:07:03.614Z,29.70
2018-07-13T16:09:31.750Z,29.60
2018-07-13T16:11:59.964Z,29.60
2018-07-13T16:14:28.093Z,29.60
2018-07-13T16:16:56.227Z,29.50
2018-07-13T16:19:25.168Z,29.60
2018-07-13T16:21:53.319Z,29.70
2018-07-13T16:24:21.447Z,29.70
2018-07-13T16:26:50.004Z,29.70
2018-07-13T16:29:18.125Z,29.80
2018-07-13T16:31:46.254Z,29.70
2018-07-13T16:34:14.390Z,29.70
2018-07-13T16:36:42.513Z,29.70
2018-07-13T16:39:10.650Z,29.70
2018-07-13T16:41:38.783Z,29.70
2018-07-13T16:44:06.908Z,29.60
2018-07-13T16:46:35.056Z,29.40
2018-07-13T16:49:03.203Z,29.50
2018-07-13T16:53:59.300Z,29.70
2018-07-13T16:56:27.505Z,29.50
2018-07-13T16:58:55.614Z,29.20
2018-07-13T17:01:23.730Z,28.90
2018-07-13T17:03:51.894Z,28.80
2018-07-13T17:06:20.070Z,28.90
2018-07-13T17:08:48.281Z,28.80
2018-07-13T17:11:16.348Z,28.70
2018-07-13T17:13:44.492Z,28.70
2018-07-13T17:16:12.605Z,28.60
2018-07-13T17:18:40.779Z,28.50
2018-07-13T17:23:36.815Z,28.50
2018-07-13T17:28:33.556Z,28.70
2018-07-13T17:31:01.691Z,28.90
2018-07-13T17:33:29.852Z,29.00
2018-07-13T17:35:57.986Z,29.20
2018-07-13T17:38:26.354Z,29.20
2018-07-13T17:40:54.481Z,29.30
2018-07-13T17:43:22.712Z,29.10
2018-07-13T17:48:18.806Z,28.70
2018-07-13T17:50:46.954Z,28.70
2018-07-13T17:53:15.091Z,28.70
2018-07-13T17:55:43.214Z,28.50
2018-07-13T17:58:11.354Z,28.20
2018-07-13T18:00:39.714Z,28.00
2018-07-13T18:03:07.813Z,27.80
2018-07-13T18:05:36.161Z,27.80
2018-07-13T18:08:04.300Z,27.80
2018-07-13T18:10:32.519Z,27.70
2018-07-13T18:15:28.563Z,27.50
2018-07-13T18:17:56.711Z,27.30
2018-07-13T18:20:24.837Z,27.20
2018-07-13T18:22:53.223Z,27.20
2018-07-13T18:25:21.299Z,27.20
2018-07-13T18:27:49.468Z,27.10
2018-07-13T18:30:17.603Z,27.10
2018-07-13T18:32:45.738Z,27.00
2018-07-13T18:35:13.944Z,26.90
2018-07-13T18:37:42.086Z,26.80
2018-07-13T18:40:10.215Z,26.70
2018-07-13T18:42:38.409Z,26.60
2018-07-13T18:45:06.613Z,26.50
2018-07-13T18:47:34.766Z,26.50
2018-07-13T18:50:02.891Z,26.50
2018-07-13T18:55:00.068Z,26.30
2018-07-13T18:57:28.202Z,26.30
2018-07-13T18:59:56.335Z,26.10
2018-07-13T19:02:24.468Z,26.10
2018-07-13T19:07:20.530Z,25.90
2018-07-13T19:09:48.669Z,25.90
2018-07-13T19:12:16.773Z,25.90
2018-07-13T19:14:44.924Z,25.80
2018-07-13T19:17:13.039Z,25.80
2018-07-13T19:19:41.170Z,25.80
2018-07-13T19:24:37.209Z,25.60
2018-07-13T19:27:05.326Z,25.50
2018-07-13T19:29:33.459Z,25.40
2018-07-13T19:32:01.599Z,25.30
2018-07-13T19:34:29.772Z,25.20
2018-07-13T19:36:57.880Z,25.10
2018-07-13T19:39:26.023Z,25.10
2018-07-13T19:41:54.141Z,25.00
2018-07-13T19:44:22.290Z,24.90
2018-07-13T19:49:18.318Z,24.80
2018-07-13T19:51:46.464Z,24.70
2018-07-13T19:54:14.608Z,24.60
2018-07-13T19:56:42.733Z,24.50
2018-07-13T19:59:10.972Z,24.50
2018-07-13T20:01:39.093Z,24.40
2018-07-13T20:04:07.254Z,24.30
2018-07-13T20:06:35.390Z,24.20
2018-07-13T20:09:04.627Z,24.10
2018-07-13T20:11:32.798Z,24.00
2018-07-13T20:14:00.958Z,23.90
2018-07-13T20:16:29.113Z,23.80
2018-07-13T20:18:57.255Z,23.70
2018-07-13T20:21:25.390Z,23.60
2018-07-13T20:23:53.537Z,23.60
2018-07-13T20:26:21.726Z,23.50
2018-07-13T20:28:49.811Z,23.50
2018-07-13T20:31:17.958Z,23.40
2018-07-13T20:33:46.264Z,23.40
2018-07-13T20:36:14.411Z,23.30
2018-07-13T20:38:42.710Z,23.20
2018-07-13T20:41:10.850Z,23.10
2018-07-13T20:43:38.981Z,23.00
2018-07-13T20:48:35.063Z,22.80
2018-07-13T20:51:03.186Z,22.70
2018-07-13T20:55:59.275Z,22.50
2018-07-13T20:58:27.403Z,22.40
2018-07-13T21:00:55.546Z,22.30
2018-07-13T21:03:23.682Z,22.20
2018-07-13T21:05:51.834Z,22.10
2018-07-13T21:08:19.958Z,22.00
2018-07-13T21:10:48.109Z,21.90
2018-07-13T21:13:16.248Z,21.70
2018-07-13T21:20:40.266Z,21.60
2018-07-13T21:23:08.392Z,21.50
2018-07-13T21:25:36.543Z,21.50
2018-07-13T21:28:04.927Z,21.40
2018-07-13T21:30:33.046Z,21.40
2018-07-13T21:35:29.095Z,21.30
2018-07-13T21:37:57.356Z,21.20
2018-07-13T21:40:25.494Z,21.10
2018-07-13T21:42:53.638Z,21.00
2018-07-13T21:45:21.814Z,20.90
2018-07-13T21:52:45.791Z,20.80
2018-07-13T21:57:41.894Z,20.70
2018-07-13T22:00:10.036Z,20.60
2018-07-13T22:02:38.167Z,20.60
2018-07-13T22:05:06.340Z,20.60
2018-07-13T22:07:34.526Z,20.50
2018-07-13T22:12:30.560Z,20.50
2018-07-13T22:14:58.679Z,20.50
2018-07-13T22:17:26.814Z,20.40
2018-07-13T22:22:22.919Z,20.30
2018-07-13T22:24:51.128Z,20.30
2018-07-13T22:29:47.150Z,20.30
2018-07-13T22:32:15.280Z,20.30
2018-07-13T22:34:43.424Z,20.30
2018-07-13T22:37:11.554Z,20.30
2018-07-13T22:39:39.679Z,20.20
2018-07-13T22:42:07.821Z,20.20
2018-07-13T22:44:35.966Z,20.10
2018-07-13T22:47:04.230Z,20.10
2018-07-13T22:49:32.447Z,20.20
2018-07-13T22:52:00.613Z,20.20
2018-07-13T22:54:28.756Z,20.20
2018-07-13T22:56:56.878Z,20.20
2018-07-13T22:59:25.015Z,20.20
2018-07-13T23:01:53.173Z,20.20
2018-07-13T23:04:21.310Z,20.20
2018-07-13T23:06:49.451Z,20.20
2018-07-13T23:09:17.578Z,20.20
2018-07-13T23:11:45.702Z,20.20
2018-07-13T23:14:13.850Z,20.10
2018-07-13T23:16:41.986Z,20.10
2018-07-13T23:19:10.131Z,20.10
2018-07-13T23:24:06.267Z,20.10
2018-07-13T23:26:34.379Z,20.10
2018-07-13T23:29:02.513Z,20.10
2018-07-13T23:33:58.555Z,20.10
2018-07-13T23:38:54.876Z,20.20
2018-07-13T23:41:23.007Z,20.10
2018-07-13T23:43:51.346Z,20.10
2018-07-13T23:48:47.387Z,20.00
2018-07-13T23:53:43.459Z,20.00
2018-07-13T23:56:11.587Z,20.00
2018-07-13T23:58:39.768Z,20.00
